sensor_id;sensor_type;location;lat;lon;timestamp;P1;durP1;ratioP1;P2;durP2;ratioP2
51184;SDS011;37248;59.350;18.050;2023-05-10T00:01:22;3.93;;;1.50;;
51184;SDS011;37248;59.350;18.050;2023-05-10T00:03:47;5.73;;;1.73;;
51184;SDS011;37248;59.350;18.050;2023-05-10T00:06:12;3.50;;;1.90;;
51184;SDS011;37248;59.350;18.050;2023-05-10T00:08:38;5.37;;;2.17;;
51184;SDS011;37248;59.350;18.050;2023-05-10T00:11:03;6.60;;;1.90;;
51184;SDS011;37248;59.350;18.050;2023-05-10T00:13:28;3.63;;;1.73;;
51184;SDS011;37248;59.350;18.050;2023-05-10T00:15:53;5.00;;;2.10;;
51184;SDS011;37248;59.350;18.050;2023-05-10T00:18:19;3.33;;;1.48;;
51184;SDS011;37248;59.350;18.050;2023-05-10T00:20:44;5.00;;;1.80;;
51184;SDS011;37248;59.350;18.050;2023-05-10T00:23:11;3.90;;;1.90;;
51184;SDS011;37248;59.350;18.050;2023-05-10T00:25:36;4.60;;;1.80;;
51184;SDS011;37248;59.350;18.050;2023-05-10T00:28:01;2.30;;;1.47;;
51184;SDS011;37248;59.350;18.050;2023-05-10T00:30:26;2.20;;;1.70;;
51184;SDS011;37248;59.350;18.050;2023-05-10T00:32:52;2.87;;;1.80;;
51184;SDS011;37248;59.350;18.050;2023-05-10T00:35:17;3.47;;;1.55;;
51184;SDS011;37248;59.350;18.050;2023-05-10T00:37:42;2.67;;;1.73;;
51184;SDS011;37248;59.350;18.050;2023-05-10T00:40:08;2.53;;;1.45;;
51184;SDS011;37248;59.350;18.050;2023-05-10T00:42:33;2.47;;;1.50;;
51184;SDS011;37248;59.350;18.050;2023-05-10T00:44:58;3.50;;;1.63;;
51184;SDS011;37248;59.350;18.050;2023-05-10T00:47:23;3.33;;;1.83;;
51184;SDS011;37248;59.350;18.050;2023-05-10T00:49:49;3.60;;;1.60;;
51184;SDS011;37248;59.350;18.050;2023-05-10T00:52:14;5.75;;;1.98;;
51184;SDS011;37248;59.350;18.050;2023-05-10T00:54:40;2.80;;;1.60;;
51184;SDS011;37248;59.350;18.050;2023-05-10T00:57:05;3.57;;;1.80;;
51184;SDS011;37248;59.350;18.050;2023-05-10T00:59:31;4.67;;;1.80;;
51184;SDS011;37248;59.350;18.050;2023-05-10T01:01:56;4.13;;;1.90;;
51184;SDS011;37248;59.350;18.050;2023-05-10T01:04:22;3.55;;;1.60;;
51184;SDS011;37248;59.350;18.050;2023-05-10T01:06:50;1.95;;;1.33;;
51184;SDS011;37248;59.350;18.050;2023-05-10T01:09:16;4.68;;;1.90;;
51184;SDS011;37248;59.350;18.050;2023-05-10T01:11:41;4.83;;;1.60;;
51184;SDS011;37248;59.350;18.050;2023-05-10T01:14:06;3.77;;;1.80;;
51184;SDS011;37248;59.350;18.050;2023-05-10T01:16:32;2.72;;;1.80;;
51184;SDS011;37248;59.350;18.050;2023-05-10T01:18:58;4.25;;;1.58;;
51184;SDS011;37248;59.350;18.050;2023-05-10T01:26:22;3.83;;;1.37;;
51184;SDS011;37248;59.350;18.050;2023-05-10T01:32:15;2.08;;;1.40;;
51184;SDS011;37248;59.350;18.050;2023-05-10T01:34:54;3.15;;;1.60;;
51184;SDS011;37248;59.350;18.050;2023-05-10T01:37:28;2.78;;;1.42;;
51184;SDS011;37248;59.350;18.050;2023-05-10T01:40:12;2.73;;;1.30;;
51184;SDS011;37248;59.350;18.050;2023-05-10T01:42:48;3.17;;;1.92;;
51184;SDS011;37248;59.350;18.050;2023-05-10T01:45:19;3.70;;;1.50;;
51184;SDS011;37248;59.350;18.050;2023-05-10T01:47:50;2.97;;;1.55;;
51184;SDS011;37248;59.350;18.050;2023-05-10T01:50:19;3.97;;;1.70;;
51184;SDS011;37248;59.350;18.050;2023-05-10T01:52:53;2.55;;;1.48;;
51184;SDS011;37248;59.350;18.050;2023-05-10T01:55:20;3.47;;;1.35;;
51184;SDS011;37248;59.350;18.050;2023-05-10T01:57:46;2.77;;;1.53;;
51184;SDS011;37248;59.350;18.050;2023-05-10T02:00:13;2.65;;;1.40;;
51184;SDS011;37248;59.350;18.050;2023-05-10T02:02:39;3.67;;;1.50;;
51184;SDS011;37248;59.350;18.050;2023-05-10T02:05:07;4.38;;;1.40;;
51184;SDS011;37248;59.350;18.050;2023-05-10T02:07:33;4.60;;;1.53;;
51184;SDS011;37248;59.350;18.050;2023-05-10T02:09:59;2.95;;;1.23;;
51184;SDS011;37248;59.350;18.050;2023-05-10T02:12:25;2.58;;;1.58;;
51184;SDS011;37248;59.350;18.050;2023-05-10T02:14:52;3.33;;;1.73;;
51184;SDS011;37248;59.350;18.050;2023-05-10T02:17:18;2.53;;;1.30;;
51184;SDS011;37248;59.350;18.050;2023-05-10T02:19:43;3.77;;;1.40;;
51184;SDS011;37248;59.350;18.050;2023-05-10T02:22:10;2.47;;;1.60;;
51184;SDS011;37248;59.350;18.050;2023-05-10T02:24:36;4.60;;;1.65;;
51184;SDS011;37248;59.350;18.050;2023-05-10T02:27:02;5.15;;;1.60;;
51184;SDS011;37248;59.350;18.050;2023-05-10T02:29:28;2.65;;;1.42;;
51184;SDS011;37248;59.350;18.050;2023-05-10T02:31:54;4.30;;;1.93;;
51184;SDS011;37248;59.350;18.050;2023-05-10T02:34:21;7.40;;;1.50;;
51184;SDS011;37248;59.350;18.050;2023-05-10T02:36:47;4.50;;;1.70;;
51184;SDS011;37248;59.350;18.050;2023-05-10T02:39:12;5.60;;;1.43;;
51184;SDS011;37248;59.350;18.050;2023-05-10T02:41:39;3.30;;;1.60;;
51184;SDS011;37248;59.350;18.050;2023-05-10T02:44:05;4.95;;;1.80;;
51184;SDS011;37248;59.350;18.050;2023-05-10T02:46:31;5.13;;;1.60;;
51184;SDS011;37248;59.350;18.050;2023-05-10T02:48:57;5.17;;;1.70;;
51184;SDS011;37248;59.350;18.050;2023-05-10T02:51:24;4.80;;;1.80;;
51184;SDS011;37248;59.350;18.050;2023-05-10T02:53:50;5.22;;;1.77;;
51184;SDS011;37248;59.350;18.050;2023-05-10T02:56:25;3.85;;;1.55;;
51184;SDS011;37248;59.350;18.050;2023-05-10T02:58:53;3.60;;;1.52;;
51184;SDS011;37248;59.350;18.050;2023-05-10T03:01:18;3.93;;;1.60;;
51184;SDS011;37248;59.350;18.050;2023-05-10T03:03:43;3.00;;;1.50;;
51184;SDS011;37248;59.350;18.050;2023-05-10T03:06:08;2.30;;;1.60;;
51184;SDS011;37248;59.350;18.050;2023-05-10T03:08:34;5.57;;;1.47;;
51184;SDS011;37248;59.350;18.050;2023-05-10T03:16:10;3.63;;;1.50;;
51184;SDS011;37248;59.350;18.050;2023-05-10T03:18:42;3.80;;;1.40;;
51184;SDS011;37248;59.350;18.050;2023-05-10T03:21:10;2.47;;;1.70;;
51184;SDS011;37248;59.350;18.050;2023-05-10T03:26:05;6.75;;;1.67;;
51184;SDS011;37248;59.350;18.050;2023-05-10T03:28:30;3.85;;;1.40;;
51184;SDS011;37248;59.350;18.050;2023-05-10T03:30:56;2.63;;;1.60;;
51184;SDS011;37248;59.350;18.050;2023-05-10T03:33:22;2.00;;;1.35;;
51184;SDS011;37248;59.350;18.050;2023-05-10T03:35:47;3.83;;;1.70;;
51184;SDS011;37248;59.350;18.050;2023-05-10T03:38:13;3.05;;;1.63;;
51184;SDS011;37248;59.350;18.050;2023-05-10T03:40:38;3.50;;;1.40;;
51184;SDS011;37248;59.350;18.050;2023-05-10T03:43:04;5.23;;;1.53;;
51184;SDS011;37248;59.350;18.050;2023-05-10T03:45:29;2.80;;;1.40;;
51184;SDS011;37248;59.350;18.050;2023-05-10T03:47:55;4.50;;;1.60;;
51184;SDS011;37248;59.350;18.050;2023-05-10T03:50:21;3.93;;;1.37;;
51184;SDS011;37248;59.350;18.050;2023-05-10T03:52:47;2.90;;;1.30;;
51184;SDS011;37248;59.350;18.050;2023-05-10T03:55:12;3.17;;;1.30;;
51184;SDS011;37248;59.350;18.050;2023-05-10T03:57:37;3.93;;;1.63;;
51184;SDS011;37248;59.350;18.050;2023-05-10T04:00:03;3.47;;;1.47;;
51184;SDS011;37248;59.350;18.050;2023-05-10T04:02:28;4.00;;;1.50;;
51184;SDS011;37248;59.350;18.050;2023-05-10T04:04:55;7.13;;;1.60;;
51184;SDS011;37248;59.350;18.050;2023-05-10T04:07:20;3.10;;;1.50;;
51184;SDS011;37248;59.350;18.050;2023-05-10T04:09:45;3.53;;;1.40;;
51184;SDS011;37248;59.350;18.050;2023-05-10T04:12:11;3.03;;;1.30;;
51184;SDS011;37248;59.350;18.050;2023-05-10T04:14:36;2.60;;;1.10;;
51184;SDS011;37248;59.350;18.050;2023-05-10T04:17:02;5.10;;;1.80;;
51184;SDS011;37248;59.350;18.050;2023-05-10T04:19:31;3.67;;;1.50;;
51184;SDS011;37248;59.350;18.050;2023-05-10T04:21:56;2.45;;;1.25;;
51184;SDS011;37248;59.350;18.050;2023-05-10T04:24:22;3.13;;;1.48;;
51184;SDS011;37248;59.350;18.050;2023-05-10T04:26:47;3.40;;;1.80;;
51184;SDS011;37248;59.350;18.050;2023-05-10T04:29:13;4.77;;;1.57;;
51184;SDS011;37248;59.350;18.050;2023-05-10T04:31:38;5.27;;;1.50;;
51184;SDS011;37248;59.350;18.050;2023-05-10T04:34:03;3.07;;;1.20;;
51184;SDS011;37248;59.350;18.050;2023-05-10T04:36:28;5.57;;;1.43;;
51184;SDS011;37248;59.350;18.050;2023-05-10T04:38:54;2.60;;;1.47;;
51184;SDS011;37248;59.350;18.050;2023-05-10T04:41:19;3.20;;;1.50;;
51184;SDS011;37248;59.350;18.050;2023-05-10T04:43:45;7.33;;;1.60;;
51184;SDS011;37248;59.350;18.050;2023-05-10T04:46:11;16.10;;;1.80;;
51184;SDS011;37248;59.350;18.050;2023-05-10T04:48:36;9.98;;;1.42;;
51184;SDS011;37248;59.350;18.050;2023-05-10T04:51:01;6.70;;;1.40;;
51184;SDS011;37248;59.350;18.050;2023-05-10T04:53:28;7.57;;;1.70;;
51184;SDS011;37248;59.350;18.050;2023-05-10T04:55:53;9.77;;;1.77;;
51184;SDS011;37248;59.350;18.050;2023-05-10T04:58:19;5.97;;;1.60;;
51184;SDS011;37248;59.350;18.050;2023-05-10T05:00:44;8.40;;;1.80;;
51184;SDS011;37248;59.350;18.050;2023-05-10T05:03:09;4.47;;;1.33;;
51184;SDS011;37248;59.350;18.050;2023-05-10T05:05:34;6.80;;;1.67;;
51184;SDS011;37248;59.350;18.050;2023-05-10T05:08:00;4.87;;;1.40;;
51184;SDS011;37248;59.350;18.050;2023-05-10T05:10:25;8.20;;;1.50;;
51184;SDS011;37248;59.350;18.050;2023-05-10T05:12:51;6.63;;;1.50;;
51184;SDS011;37248;59.350;18.050;2023-05-10T05:15:16;3.83;;;1.60;;
51184;SDS011;37248;59.350;18.050;2023-05-10T05:17:42;6.10;;;1.42;;
51184;SDS011;37248;59.350;18.050;2023-05-10T05:20:08;4.40;;;1.40;;
51184;SDS011;37248;59.350;18.050;2023-05-10T05:22:33;5.55;;;1.27;;
51184;SDS011;37248;59.350;18.050;2023-05-10T05:24:58;3.83;;;1.63;;
51184;SDS011;37248;59.350;18.050;2023-05-10T05:27:24;3.80;;;1.50;;
51184;SDS011;37248;59.350;18.050;2023-05-10T05:29:54;4.70;;;1.50;;
51184;SDS011;37248;59.350;18.050;2023-05-10T05:32:20;8.45;;;1.70;;
51184;SDS011;37248;59.350;18.050;2023-05-10T05:34:45;9.43;;;1.97;;
51184;SDS011;37248;59.350;18.050;2023-05-10T05:37:17;6.23;;;1.70;;
51184;SDS011;37248;59.350;18.050;2023-05-10T05:39:43;13.27;;;2.10;;
51184;SDS011;37248;59.350;18.050;2023-05-10T05:42:08;7.53;;;1.70;;
51184;SDS011;37248;59.350;18.050;2023-05-10T05:44:34;7.13;;;1.60;;
51184;SDS011;37248;59.350;18.050;2023-05-10T05:46:59;3.50;;;1.40;;
51184;SDS011;37248;59.350;18.050;2023-05-10T05:49:24;6.43;;;1.93;;
51184;SDS011;37248;59.350;18.050;2023-05-10T05:51:49;5.33;;;1.83;;
51184;SDS011;37248;59.350;18.050;2023-05-10T05:54:15;8.00;;;2.00;;
51184;SDS011;37248;59.350;18.050;2023-05-10T05:56:40;6.23;;;2.10;;
51184;SDS011;37248;59.350;18.050;2023-05-10T05:59:05;7.50;;;2.27;;
51184;SDS011;37248;59.350;18.050;2023-05-10T06:01:31;8.17;;;2.50;;
51184;SDS011;37248;59.350;18.050;2023-05-10T06:03:56;7.03;;;2.10;;
51184;SDS011;37248;59.350;18.050;2023-05-10T06:06:21;15.13;;;2.70;;
51184;SDS011;37248;59.350;18.050;2023-05-10T06:08:47;9.70;;;2.90;;
51184;SDS011;37248;59.350;18.050;2023-05-10T06:11:12;24.07;;;3.03;;
51184;SDS011;37248;59.350;18.050;2023-05-10T06:13:37;16.53;;;3.03;;
51184;SDS011;37248;59.350;18.050;2023-05-10T06:16:02;18.70;;;3.53;;
51184;SDS011;37248;59.350;18.050;2023-05-10T06:18:28;24.37;;;3.90;;
51184;SDS011;37248;59.350;18.050;2023-05-10T06:20:53;21.63;;;3.37;;
51184;SDS011;37248;59.350;18.050;2023-05-10T06:23:18;14.10;;;2.70;;
51184;SDS011;37248;59.350;18.050;2023-05-10T06:25:44;13.13;;;3.10;;
51184;SDS011;37248;59.350;18.050;2023-05-10T06:28:09;10.33;;;2.37;;
51184;SDS011;37248;59.350;18.050;2023-05-10T06:30:35;20.43;;;2.77;;
51184;SDS011;37248;59.350;18.050;2023-05-10T06:33:00;16.10;;;2.90;;
51184;SDS011;37248;59.350;18.050;2023-05-10T06:35:25;14.80;;;2.83;;
51184;SDS011;37248;59.350;18.050;2023-05-10T06:37:51;14.30;;;2.77;;
51184;SDS011;37248;59.350;18.050;2023-05-10T06:40:16;54.00;;;7.03;;
51184;SDS011;37248;59.350;18.050;2023-05-10T06:42:41;36.60;;;4.43;;
51184;SDS011;37248;59.350;18.050;2023-05-10T06:45:07;12.83;;;2.80;;
51184;SDS011;37248;59.350;18.050;2023-05-10T06:47:33;26.50;;;3.67;;
51184;SDS011;37248;59.350;18.050;2023-05-10T06:49:58;24.10;;;4.33;;
51184;SDS011;37248;59.350;18.050;2023-05-10T06:52:24;28.30;;;4.17;;
51184;SDS011;37248;59.350;18.050;2023-05-10T06:54:49;22.47;;;4.03;;
51184;SDS011;37248;59.350;18.050;2023-05-10T06:57:14;13.30;;;3.40;;
51184;SDS011;37248;59.350;18.050;2023-05-10T06:59:39;18.03;;;4.23;;
51184;SDS011;37248;59.350;18.050;2023-05-10T07:02:05;24.30;;;4.33;;
51184;SDS011;37248;59.350;18.050;2023-05-10T07:04:30;21.33;;;4.05;;
51184;SDS011;37248;59.350;18.050;2023-05-10T07:06:56;10.73;;;3.08;;
51184;SDS011;37248;59.350;18.050;2023-05-10T07:09:22;19.73;;;4.20;;
51184;SDS011;37248;59.350;18.050;2023-05-10T07:11:48;18.10;;;3.70;;
51184;SDS011;37248;59.350;18.050;2023-05-10T07:14:13;17.43;;;3.80;;
51184;SDS011;37248;59.350;18.050;2023-05-10T07:16:39;15.27;;;3.43;;
51184;SDS011;37248;59.350;18.050;2023-05-10T07:19:04;11.20;;;3.27;;
51184;SDS011;37248;59.350;18.050;2023-05-10T07:21:30;17.52;;;3.47;;
51184;SDS011;37248;59.350;18.050;2023-05-10T07:23:56;14.90;;;3.83;;
51184;SDS011;37248;59.350;18.050;2023-05-10T07:26:21;19.30;;;4.70;;
51184;SDS011;37248;59.350;18.050;2023-05-10T07:28:46;13.88;;;4.50;;
51184;SDS011;37248;59.350;18.050;2023-05-10T07:31:12;19.23;;;4.40;;
51184;SDS011;37248;59.350;18.050;2023-05-10T07:33:37;18.53;;;4.63;;
51184;SDS011;37248;59.350;18.050;2023-05-10T07:36:02;12.45;;;4.28;;
51184;SDS011;37248;59.350;18.050;2023-05-10T07:38:27;16.10;;;4.10;;
51184;SDS011;37248;59.350;18.050;2023-05-10T07:40:53;16.97;;;4.20;;
51184;SDS011;37248;59.350;18.050;2023-05-10T07:43:18;19.15;;;4.05;;
51184;SDS011;37248;59.350;18.050;2023-05-10T07:45:43;10.63;;;3.80;;
51184;SDS011;37248;59.350;18.050;2023-05-10T07:48:08;15.43;;;4.33;;
51184;SDS011;37248;59.350;18.050;2023-05-10T07:50:34;14.73;;;3.13;;
51184;SDS011;37248;59.350;18.050;2023-05-10T07:52:59;10.50;;;3.53;;
51184;SDS011;37248;59.350;18.050;2023-05-10T07:55:24;9.60;;;3.30;;
51184;SDS011;37248;59.350;18.050;2023-05-10T07:57:50;13.87;;;3.80;;
51184;SDS011;37248;59.350;18.050;2023-05-10T08:00:17;13.33;;;3.10;;
51184;SDS011;37248;59.350;18.050;2023-05-10T08:02:42;9.10;;;3.03;;
51184;SDS011;37248;59.350;18.050;2023-05-10T08:05:08;9.07;;;3.20;;
51184;SDS011;37248;59.350;18.050;2023-05-10T08:07:33;10.80;;;2.90;;
51184;SDS011;37248;59.350;18.050;2023-05-10T08:09:58;11.23;;;3.27;;
51184;SDS011;37248;59.350;18.050;2023-05-10T08:12:24;12.63;;;3.10;;
51184;SDS011;37248;59.350;18.050;2023-05-10T08:14:49;9.93;;;3.07;;
51184;SDS011;37248;59.350;18.050;2023-05-10T08:17:14;9.70;;;3.03;;
51184;SDS011;37248;59.350;18.050;2023-05-10T08:19:39;10.17;;;3.17;;
51184;SDS011;37248;59.350;18.050;2023-05-10T08:22:05;6.23;;;2.67;;
51184;SDS011;37248;59.350;18.050;2023-05-10T08:24:30;12.40;;;2.70;;
51184;SDS011;37248;59.350;18.050;2023-05-10T08:26:55;12.30;;;3.37;;
51184;SDS011;37248;59.350;18.050;2023-05-10T08:29:21;8.43;;;3.38;;
51184;SDS011;37248;59.350;18.050;2023-05-10T08:31:46;5.80;;;2.73;;
51184;SDS011;37248;59.350;18.050;2023-05-10T08:34:11;7.17;;;3.00;;
51184;SDS011;37248;59.350;18.050;2023-05-10T08:36:36;5.90;;;2.47;;
51184;SDS011;37248;59.350;18.050;2023-05-10T08:39:02;9.53;;;3.00;;
51184;SDS011;37248;59.350;18.050;2023-05-10T08:41:27;7.72;;;2.63;;
51184;SDS011;37248;59.350;18.050;2023-05-10T08:43:53;7.90;;;2.85;;
51184;SDS011;37248;59.350;18.050;2023-05-10T08:46:19;5.73;;;2.23;;
51184;SDS011;37248;59.350;18.050;2023-05-10T08:48:45;8.57;;;2.60;;
51184;SDS011;37248;59.350;18.050;2023-05-10T08:51:12;3.83;;;2.53;;
51184;SDS011;37248;59.350;18.050;2023-05-10T08:53:38;8.27;;;2.50;;
51184;SDS011;37248;59.350;18.050;2023-05-10T08:56:04;7.13;;;2.53;;
51184;SDS011;37248;59.350;18.050;2023-05-10T08:58:29;5.85;;;2.63;;
51184;SDS011;37248;59.350;18.050;2023-05-10T09:00:55;6.85;;;2.50;;
51184;SDS011;37248;59.350;18.050;2023-05-10T09:03:21;10.27;;;2.40;;
51184;SDS011;37248;59.350;18.050;2023-05-10T09:05:47;5.60;;;2.50;;
51184;SDS011;37248;59.350;18.050;2023-05-10T09:08:13;4.60;;;2.50;;
51184;SDS011;37248;59.350;18.050;2023-05-10T09:10:41;5.13;;;2.33;;
51184;SDS011;37248;59.350;18.050;2023-05-10T09:13:08;4.95;;;2.30;;
51184;SDS011;37248;59.350;18.050;2023-05-10T09:15:34;6.57;;;2.20;;
51184;SDS011;37248;59.350;18.050;2023-05-10T09:18:00;5.07;;;2.40;;
51184;SDS011;37248;59.350;18.050;2023-05-10T09:20:27;4.78;;;2.20;;
51184;SDS011;37248;59.350;18.050;2023-05-10T09:22:52;5.10;;;2.30;;
51184;SDS011;37248;59.350;18.050;2023-05-10T09:25:17;5.23;;;2.20;;
51184;SDS011;37248;59.350;18.050;2023-05-10T09:27:44;3.40;;;2.10;;
51184;SDS011;37248;59.350;18.050;2023-05-10T09:30:10;8.27;;;1.98;;
51184;SDS011;37248;59.350;18.050;2023-05-10T09:32:36;10.30;;;2.20;;
51184;SDS011;37248;59.350;18.050;2023-05-10T09:37:33;4.10;;;2.20;;
51184;SDS011;37248;59.350;18.050;2023-05-10T09:39:58;5.20;;;2.00;;
51184;SDS011;37248;59.350;18.050;2023-05-10T09:42:23;4.63;;;2.13;;
51184;SDS011;37248;59.350;18.050;2023-05-10T09:44:49;4.57;;;2.13;;
51184;SDS011;37248;59.350;18.050;2023-05-10T09:47:17;2.90;;;2.10;;
51184;SDS011;37248;59.350;18.050;2023-05-10T09:49:43;3.60;;;1.98;;
51184;SDS011;37248;59.350;18.050;2023-05-10T09:52:09;3.63;;;2.20;;
51184;SDS011;37248;59.350;18.050;2023-05-10T09:54:34;4.63;;;1.87;;
51184;SDS011;37248;59.350;18.050;2023-05-10T09:57:00;5.83;;;2.43;;
51184;SDS011;37248;59.350;18.050;2023-05-10T09:59:26;5.03;;;2.03;;
51184;SDS011;37248;59.350;18.050;2023-05-10T10:01:59;3.30;;;2.10;;
51184;SDS011;37248;59.350;18.050;2023-05-10T10:04:25;5.55;;;1.95;;
51184;SDS011;37248;59.350;18.050;2023-05-10T10:07:02;4.10;;;1.70;;
51184;SDS011;37248;59.350;18.050;2023-05-10T10:09:28;4.10;;;2.00;;
51184;SDS011;37248;59.350;18.050;2023-05-10T10:11:53;4.82;;;2.28;;
51184;SDS011;37248;59.350;18.050;2023-05-10T10:14:18;5.53;;;2.30;;
51184;SDS011;37248;59.350;18.050;2023-05-10T10:16:44;3.40;;;1.77;;
51184;SDS011;37248;59.350;18.050;2023-05-10T10:19:09;3.93;;;1.90;;
51184;SDS011;37248;59.350;18.050;2023-05-10T10:21:35;4.37;;;2.07;;
51184;SDS011;37248;59.350;18.050;2023-05-10T10:24:00;3.47;;;1.87;;
51184;SDS011;37248;59.350;18.050;2023-05-10T10:26:26;3.70;;;1.90;;
51184;SDS011;37248;59.350;18.050;2023-05-10T10:28:54;2.57;;;1.73;;
51184;SDS011;37248;59.350;18.050;2023-05-10T10:31:32;5.17;;;2.10;;
51184;SDS011;37248;59.350;18.050;2023-05-10T10:34:06;2.90;;;1.90;;
51184;SDS011;37248;59.350;18.050;2023-05-10T10:36:32;3.25;;;1.75;;
51184;SDS011;37248;59.350;18.050;2023-05-10T10:39:01;5.07;;;1.90;;
51184;SDS011;37248;59.350;18.050;2023-05-10T10:41:38;6.27;;;2.03;;
51184;SDS011;37248;59.350;18.050;2023-05-10T10:49:27;3.25;;;1.80;;
51184;SDS011;37248;59.350;18.050;2023-05-10T10:54:36;3.08;;;1.92;;
51184;SDS011;37248;59.350;18.050;2023-05-10T10:57:12;4.28;;;2.10;;
51184;SDS011;37248;59.350;18.050;2023-05-10T10:59:42;3.50;;;2.20;;
51184;SDS011;37248;59.350;18.050;2023-05-10T11:02:08;3.85;;;1.92;;
51184;SDS011;37248;59.350;18.050;2023-05-10T11:04:43;2.88;;;1.83;;
51184;SDS011;37248;59.350;18.050;2023-05-10T11:07:17;3.17;;;1.92;;
51184;SDS011;37248;59.350;18.050;2023-05-10T11:09:42;2.38;;;1.75;;
51184;SDS011;37248;59.350;18.050;2023-05-10T11:12:08;3.77;;;2.10;;
51184;SDS011;37248;59.350;18.050;2023-05-10T11:14:33;4.63;;;2.10;;
51184;SDS011;37248;59.350;18.050;2023-05-10T11:16:59;3.53;;;1.70;;
51184;SDS011;37248;59.350;18.050;2023-05-10T11:19:27;5.80;;;1.80;;
51184;SDS011;37248;59.350;18.050;2023-05-10T11:24:30;3.90;;;2.00;;
51184;SDS011;37248;59.350;18.050;2023-05-10T11:26:55;2.80;;;1.70;;
51184;SDS011;37248;59.350;18.050;2023-05-10T11:29:21;4.35;;;1.70;;
51184;SDS011;37248;59.350;18.050;2023-05-10T11:31:46;3.10;;;1.73;;
51184;SDS011;37248;59.350;18.050;2023-05-10T11:34:22;5.80;;;2.10;;
51184;SDS011;37248;59.350;18.050;2023-05-10T11:36:50;3.92;;;2.20;;
51184;SDS011;37248;59.350;18.050;2023-05-10T11:39:16;4.70;;;1.90;;
51184;SDS011;37248;59.350;18.050;2023-05-10T11:41:41;2.07;;;1.70;;
51184;SDS011;37248;59.350;18.050;2023-05-10T11:44:06;4.23;;;1.60;;
51184;SDS011;37248;59.350;18.050;2023-05-10T11:46:34;5.63;;;1.77;;
51184;SDS011;37248;59.350;18.050;2023-05-10T11:49:01;4.30;;;1.73;;
51184;SDS011;37248;59.350;18.050;2023-05-10T11:51:29;3.92;;;1.90;;
51184;SDS011;37248;59.350;18.050;2023-05-10T11:53:54;2.77;;;1.67;;
51184;SDS011;37248;59.350;18.050;2023-05-10T11:56:20;3.15;;;2.17;;
51184;SDS011;37248;59.350;18.050;2023-05-10T11:58:51;2.40;;;1.58;;
51184;SDS011;37248;59.350;18.050;2023-05-10T12:01:16;2.60;;;1.90;;
51184;SDS011;37248;59.350;18.050;2023-05-10T12:03:41;2.70;;;1.60;;
51184;SDS011;37248;59.350;18.050;2023-05-10T12:06:07;2.70;;;1.83;;
51184;SDS011;37248;59.350;18.050;2023-05-10T12:08:32;2.38;;;1.77;;
51184;SDS011;37248;59.350;18.050;2023-05-10T12:11:05;4.80;;;1.87;;
51184;SDS011;37248;59.350;18.050;2023-05-10T12:13:30;2.67;;;1.70;;
51184;SDS011;37248;59.350;18.050;2023-05-10T12:15:58;4.27;;;1.90;;
51184;SDS011;37248;59.350;18.050;2023-05-10T12:18:24;3.10;;;1.88;;
51184;SDS011;37248;59.350;18.050;2023-05-10T12:20:51;2.22;;;1.50;;
51184;SDS011;37248;59.350;18.050;2023-05-10T12:23:17;3.80;;;2.07;;
51184;SDS011;37248;59.350;18.050;2023-05-10T12:25:42;3.00;;;1.70;;
51184;SDS011;37248;59.350;18.050;2023-05-10T12:28:08;2.78;;;1.55;;
51184;SDS011;37248;59.350;18.050;2023-05-10T12:30:34;2.70;;;1.80;;
51184;SDS011;37248;59.350;18.050;2023-05-10T12:35:25;3.33;;;1.90;;
51184;SDS011;37248;59.350;18.050;2023-05-10T12:37:51;7.03;;;1.97;;
51184;SDS011;37248;59.350;18.050;2023-05-10T12:40:16;8.73;;;1.87;;
51184;SDS011;37248;59.350;18.050;2023-05-10T12:42:41;5.83;;;1.67;;
51184;SDS011;37248;59.350;18.050;2023-05-10T12:45:07;8.90;;;1.77;;
51184;SDS011;37248;59.350;18.050;2023-05-10T12:47:33;4.22;;;1.60;;
51184;SDS011;37248;59.350;18.050;2023-05-10T12:49:59;6.63;;;1.77;;
51184;SDS011;37248;59.350;18.050;2023-05-10T12:52:25;3.50;;;1.90;;
51184;SDS011;37248;59.350;18.050;2023-05-10T12:54:51;3.47;;;1.65;;
51184;SDS011;37248;59.350;18.050;2023-05-10T12:57:16;4.37;;;1.53;;
51184;SDS011;37248;59.350;18.050;2023-05-10T12:59:41;4.33;;;1.80;;
51184;SDS011;37248;59.350;18.050;2023-05-10T13:02:06;4.50;;;1.80;;
51184;SDS011;37248;59.350;18.050;2023-05-10T13:04:32;3.80;;;2.00;;
51184;SDS011;37248;59.350;18.050;2023-05-10T13:06:57;4.47;;;1.73;;
51184;SDS011;37248;59.350;18.050;2023-05-10T13:09:26;5.47;;;1.90;;
51184;SDS011;37248;59.350;18.050;2023-05-10T13:11:52;3.25;;;2.00;;
51184;SDS011;37248;59.350;18.050;2023-05-10T13:14:19;4.45;;;1.92;;
51184;SDS011;37248;59.350;18.050;2023-05-10T13:16:45;4.22;;;2.05;;
51184;SDS011;37248;59.350;18.050;2023-05-10T13:19:10;4.18;;;2.25;;
51184;SDS011;37248;59.350;18.050;2023-05-10T13:21:36;5.00;;;1.93;;
51184;SDS011;37248;59.350;18.050;2023-05-10T13:24:01;6.53;;;1.90;;
51184;SDS011;37248;59.350;18.050;2023-05-10T13:26:27;4.55;;;2.30;;
51184;SDS011;37248;59.350;18.050;2023-05-10T13:28:53;5.45;;;2.08;;
51184;SDS011;37248;59.350;18.050;2023-05-10T13:31:20;2.77;;;2.00;;
51184;SDS011;37248;59.350;18.050;2023-05-10T13:33:45;7.37;;;2.10;;
51184;SDS011;37248;59.350;18.050;2023-05-10T13:36:11;4.77;;;2.10;;
51184;SDS011;37248;59.350;18.050;2023-05-10T13:38:36;7.90;;;2.27;;
51184;SDS011;37248;59.350;18.050;2023-05-10T13:41:02;8.70;;;2.35;;
51184;SDS011;37248;59.350;18.050;2023-05-10T13:43:28;6.45;;;2.20;;
51184;SDS011;37248;59.350;18.050;2023-05-10T13:45:53;6.47;;;2.15;;
51184;SDS011;37248;59.350;18.050;2023-05-10T13:48:19;6.53;;;2.60;;
51184;SDS011;37248;59.350;18.050;2023-05-10T13:50:44;10.40;;;2.47;;
51184;SDS011;37248;59.350;18.050;2023-05-10T13:53:09;4.97;;;2.17;;
51184;SDS011;37248;59.350;18.050;2023-05-10T13:55:35;3.57;;;2.40;;
51184;SDS011;37248;59.350;18.050;2023-05-10T13:58:00;5.70;;;2.90;;
51184;SDS011;37248;59.350;18.050;2023-05-10T14:00:26;6.45;;;2.30;;
51184;SDS011;37248;59.350;18.050;2023-05-10T14:02:51;8.00;;;2.75;;
51184;SDS011;37248;59.350;18.050;2023-05-10T14:05:17;5.97;;;2.37;;
51184;SDS011;37248;59.350;18.050;2023-05-10T14:07:42;3.33;;;2.33;;
51184;SDS011;37248;59.350;18.050;2023-05-10T14:10:07;3.93;;;2.30;;
51184;SDS011;37248;59.350;18.050;2023-05-10T14:12:33;6.13;;;2.45;;
51184;SDS011;37248;59.350;18.050;2023-05-10T14:14:58;5.80;;;2.27;;
51184;SDS011;37248;59.350;18.050;2023-05-10T14:17:23;4.28;;;2.45;;
51184;SDS011;37248;59.350;18.050;2023-05-10T14:19:48;3.73;;;2.00;;
51184;SDS011;37248;59.350;18.050;2023-05-10T14:22:14;4.00;;;1.90;;
51184;SDS011;37248;59.350;18.050;2023-05-10T14:24:39;4.17;;;2.17;;
51184;SDS011;37248;59.350;18.050;2023-05-10T14:27:04;4.13;;;2.30;;
51184;SDS011;37248;59.350;18.050;2023-05-10T14:29:30;4.30;;;2.30;;
51184;SDS011;37248;59.350;18.050;2023-05-10T14:31:56;3.13;;;2.17;;
51184;SDS011;37248;59.350;18.050;2023-05-10T14:34:21;3.40;;;2.10;;
51184;SDS011;37248;59.350;18.050;2023-05-10T14:36:46;2.80;;;2.20;;
51184;SDS011;37248;59.350;18.050;2023-05-10T14:39:11;3.57;;;2.40;;
51184;SDS011;37248;59.350;18.050;2023-05-10T14:41:38;3.63;;;2.10;;
51184;SDS011;37248;59.350;18.050;2023-05-10T14:44:05;3.08;;;2.00;;
51184;SDS011;37248;59.350;18.050;2023-05-10T14:46:31;3.77;;;1.90;;
51184;SDS011;37248;59.350;18.050;2023-05-10T14:48:56;5.33;;;2.10;;
51184;SDS011;37248;59.350;18.050;2023-05-10T14:51:21;2.67;;;2.00;;
51184;SDS011;37248;59.350;18.050;2023-05-10T14:53:47;3.67;;;2.10;;
51184;SDS011;37248;59.350;18.050;2023-05-10T14:56:13;3.70;;;2.00;;
51184;SDS011;37248;59.350;18.050;2023-05-10T14:58:38;3.53;;;2.20;;